Time;durP1;ratioP1;P1;durP2;ratioP2;P2;SDS_P1;SDS_P2;PMS_P1;PMS_P2;Temp;Humidity;BMP_temperature;BMP_pressure;BME280_temperature;BME280_humidity;BME280_pressure;Samples;Min_cycle;Max_cycle;Signal;HPM_P1;HPM_P2
2022/03/09 00:00:49;;;;;;;;;63.75;47.25;;;;;9.07;45.69;101631.66;5079354;27;45565;-60
2022/03/09 00:03:16;;;;;;;;;63.33;48.33;;;;;9.07;45.21;101626.41;5100970;27;45372;-60
2022/03/09 00:05:44;;;;;;;;;68.75;47.00;;;;;9.05;45.45;101623.84;5100575;27;45492;-60
2022/03/09 00:08:09;;;;;;;;;55.50;38.50;;;;;9.03;45.60;101619.59;5088797;27;45495;-61
2022/03/09 00:10:35;;;;;;;;;59.00;46.25;;;;;9.03;45.62;101628.31;5098801;27;45410;-62
2022/03/09 00:13:00;;;;;;;;;71.00;50.25;;;;;9.01;45.56;101632.78;5100827;27;45225;-61
2022/03/09 00:15:26;;;;;;;;;65.00;49.00;;;;;9.03;45.62;101628.31;5101392;27;45550;-63
2022/03/09 00:17:51;;;;;;;;;59.00;44.00;;;;;9.03;45.57;101625.69;5100870;27;45477;-58
2022/03/09 00:20:17;;;;;;;;;64.50;47.00;;;;;9.03;46.22;101630.94;5096763;27;45974;-61
2022/03/09 00:22:43;;;;;;;;;65.33;50.00;;;;;9.04;45.66;101623.91;5098056;27;45163;-60
2022/03/09 00:25:09;;;;;;;;;61.50;46.00;;;;;9.03;45.79;101625.69;5090414;27;45464;-62
2022/03/09 00:27:34;;;;;;;;;61.50;46.75;;;;;9.03;45.95;101624.84;5081747;27;45446;-64
2022/03/09 00:30:01;;;;;;;;;69.75;49.50;;;;;9.05;45.55;101630.88;5081529;28;46028;-61
2022/03/09 00:32:27;;;;;;;;;63.50;46.50;;;;;9.04;45.74;101627.41;5081660;28;45407;-61
2022/03/09 00:34:52;;;;;;;;;62.67;46.67;;;;;9.06;46.01;101632.59;5081978;28;45366;-61
2022/03/09 00:37:18;;;;;;;;;67.25;46.75;;;;;9.04;45.89;101640.53;5081847;28;45325;-59
2022/03/09 00:39:43;;;;;;;;;56.25;36.00;;;;;9.01;46.03;101637.19;5090403;27;45215;-61
2022/03/09 00:42:09;;;;;;;;;59.33;46.67;;;;;9.03;45.85;101636.19;5085079;27;45287;-59
2022/03/09 00:44:34;;;;;;;;;64.50;46.75;;;;;9.01;46.43;101643.28;5118116;27;45582;-59
2022/03/09 00:47:00;;;;;;;;;61.67;46.00;;;;;9.01;45.76;101643.28;5102745;27;45635;-59
2022/03/09 00:49:25;;;;;;;;;64.50;45.25;;;;;9.02;46.01;101644.16;5108675;27;46190;-59
2022/03/09 00:51:51;;;;;;;;;70.33;48.67;;;;;9.00;45.82;101644.19;5083601;27;45563;-59
2022/03/09 00:54:16;;;;;;;;;68.33;45.67;;;;;9.00;45.79;101649.44;5080672;27;45493;-59
2022/03/09 00:56:42;;;;;;;;;69.50;51.25;;;;;9.00;45.99;101659.09;5100390;27;45378;-59
2022/03/09 00:59:07;;;;;;;;;59.00;46.00;;;;;8.99;45.84;101666.13;5092153;27;45801;-59
2022/03/09 01:01:33;;;;;;;;;67.25;50.00;;;;;8.99;46.10;101666.13;5088939;27;45453;-59
2022/03/09 01:03:59;;;;;;;;;63.67;49.33;;;;;8.98;46.17;101660.94;5098764;27;45391;-59
2022/03/09 01:06:24;;;;;;;;;68.25;49.75;;;;;8.97;46.24;101652.19;5097279;27;46596;-59
2022/03/09 01:08:49;;;;;;;;;66.00;47.33;;;;;8.96;46.17;101663.63;5098224;27;45693;-60
2022/03/09 01:11:15;;;;;;;;;69.33;51.00;;;;;8.94;46.01;101654.94;5101081;27;45511;-59
2022/03/09 01:13:40;;;;;;;;;65.00;49.75;;;;;8.93;46.19;101661.97;5101633;27;45500;-60
2022/03/09 01:16:06;;;;;;;;;67.00;49.75;;;;;8.91;46.07;101666.41;5100533;27;45411;-60
2022/03/09 01:18:32;;;;;;;;;63.50;49.50;;;;;8.88;46.41;101669.16;5101281;27;45403;-60
2022/03/09 01:20:57;;;;;;;;;61.25;47.25;;;;;8.86;46.74;101668.38;5091670;27;45464;-60
2022/03/09 01:23:23;;;;;;;;;66.67;50.33;;;;;8.84;46.87;101670.19;5080688;28;45413;-58
2022/03/09 01:25:48;;;;;;;;;65.67;47.33;;;;;8.81;46.95;101666.81;5079794;27;45394;-58
2022/03/09 01:28:14;;;;;;;;;68.67;50.33;;;;;8.80;46.60;101667.75;5080686;28;45242;-58
2022/03/09 01:30:39;;;;;;;;;63.00;47.33;;;;;8.77;46.67;101665.22;5080620;28;45366;-58
2022/03/09 01:33:05;;;;;;;;;68.33;51.00;;;;;8.77;46.87;101671.34;5080816;28;45460;-58
2022/03/09 01:35:31;;;;;;;;;71.00;52.67;;;;;8.76;46.62;101664.34;5079558;28;45371;-58
2022/03/09 01:37:56;;;;;;;;;68.33;49.33;;;;;8.75;46.96;101664.41;5078275;28;45482;-58
2022/03/09 01:40:21;;;;;;;;;71.00;49.67;;;;;8.75;46.78;101664.41;5089978;27;45388;-58
2022/03/09 01:42:47;;;;;;;;;60.00;46.75;;;;;8.74;47.10;101660.94;5078976;27;45613;-58
2022/03/09 01:45:14;;;;;;;;;63.33;48.00;;;;;8.72;47.29;101665.41;5078654;27;45525;-58
2022/03/09 01:47:39;;;;;;;;;66.33;51.00;;;;;8.70;47.35;101653.25;5079504;28;46087;-58
2022/03/09 01:50:08;;;;;;;;;66.25;47.75;;;;;8.69;47.40;101657.63;5080311;28;45563;-58
2022/03/09 01:52:35;;;;;;;;;65.50;50.00;;;;;8.67;47.42;101655.03;5079801;28;45347;-56
2022/03/09 01:55:00;;;;;;;;;66.75;48.50;;;;;8.66;47.47;101655.09;5079462;28;45580;-57
2022/03/09 01:57:30;;;;;;;;;71.67;48.33;;;;;8.64;47.60;101654.31;5088539;27;45376;-57
2022/03/09 01:59:55;;;;;;;;;66.33;52.33;;;;;8.62;47.33;101662.25;5090315;27;45390;-57
2022/03/09 02:02:21;;;;;;;;;63.33;49.33;;;;;8.62;47.62;101656.16;5079940;27;45398;-57
2022/03/09 02:04:46;;;;;;;;;63.00;48.67;;;;;8.60;47.65;101647.44;5079619;28;45369;-57
2022/03/09 02:07:12;;;;;;;;;59.00;46.50;;;;;8.59;47.90;101640.47;5079212;27;46340;-57
2022/03/09 02:09:42;;;;;;;;;66.25;51.75;;;;;8.58;47.70;101644.03;5083235;27;45451;-58
2022/03/09 02:12:11;;;;;;;;;67.25;47.00;;;;;8.58;47.77;101646.66;5080481;28;45355;-58
2022/03/09 02:14:46;;;;;;;;;59.33;45.00;;;;;8.57;48.21;101642.31;5080626;28;45458;-58
2022/03/09 02:17:16;;;;;;;;;62.67;50.67;;;;;8.55;48.34;101639.75;5082934;27;45340;-58
2022/03/09 02:19:43;;;;;;;;;65.00;46.33;;;;;8.53;48.57;101638.97;5094209;27;45255;-54
2022/03/09 02:22:33;;;;;;;;;65.67;49.00;;;;;8.50;48.79;101639.06;5087497;27;45520;-58
2022/03/09 02:25:00;;;;;;;;;60.33;45.67;;;;;8.46;48.63;101642.72;5100239;27;45550;-56
2022/03/09 02:27:26;;;;;;;;;66.00;52.33;;;;;8.47;48.75;101641.81;5100364;27;45323;-56
2022/03/09 02:29:53;;;;;;;;;66.00;50.67;;;;;8.48;48.51;101647.91;5100481;27;45309;-57
2022/03/09 02:32:19;;;;;;;;;70.00;54.00;;;;;8.47;48.34;101646.19;5100925;27;45712;-57
2022/03/09 02:34:45;;;;;;;;;70.00;52.33;;;;;8.47;48.49;101651.44;5102331;27;45547;-57
2022/03/09 02:37:11;;;;;;;;;72.33;51.33;;;;;8.46;48.78;101653.22;5104133;27;46087;-57
2022/03/09 02:39:36;;;;;;;;;72.33;53.33;;;;;8.45;48.81;101648.00;5099977;27;45409;-58
2022/03/09 02:42:03;;;;;;;;;71.67;53.33;;;;;8.40;48.81;101648.19;5083777;27;45311;-58
2022/03/09 02:44:29;;;;;;;;;67.67;50.33;;;;;8.38;49.14;101640.38;5083500;27;45596;-57
2022/03/09 02:46:54;;;;;;;;;74.33;55.00;;;;;8.37;49.25;101640.41;5083062;27;46021;-57
2022/03/09 02:49:20;;;;;;;;;67.67;54.00;;;;;8.36;49.06;101641.31;5082932;27;45334;-57
2022/03/09 02:51:45;;;;;;;;;68.33;50.00;;;;;8.34;49.20;101648.34;5083690;28;45240;-57
2022/03/09 02:54:11;;;;;;;;;73.00;51.00;;;;;8.30;49.14;101650.25;5083041;27;45233;-56
2022/03/09 02:56:36;;;;;;;;;69.67;50.33;;;;;8.28;49.44;101651.19;5084274;27;45361;-56
2022/03/09 02:59:02;;;;;;;;;67.33;49.67;;;;;8.27;49.49;101655.59;5100321;27;45308;-56
2022/03/09 03:01:28;;;;;;;;;68.33;52.67;;;;;8.25;49.57;101660.03;5083372;28;45319;-57
2022/03/09 03:03:53;;;;;;;;;68.33;51.67;;;;;8.24;50.21;101663.59;5083228;27;45490;-57
2022/03/09 03:06:19;;;;;;;;;58.67;45.00;;;;;8.25;50.31;101665.28;5082971;27;46151;-57
2022/03/09 03:08:44;;;;;;;;;55.25;41.75;;;;;8.26;51.50;101668.78;5086607;27;45465;-57
2022/03/09 03:11:10;;;;;;;;;57.75;43.50;;;;;8.27;52.24;101668.72;5083063;27;45395;-57
2022/03/09 03:13:40;;;;;;;;;56.50;40.50;;;;;8.29;52.88;101674.75;5083248;27;45249;-57
2022/03/09 03:16:06;;;;;;;;;48.00;40.00;;;;;8.31;53.13;101675.59;5082740;27;46361;-56
2022/03/09 03:18:32;;;;;;;;;40.25;36.00;;;;;8.31;54.32;101670.34;5082888;28;45380;-58
2022/03/09 03:20:58;;;;;;;;;45.50;37.00;;;;;8.33;54.66;101671.13;5082773;28;45268;-57
2022/03/09 03:23:25;;;;;;;;;46.00;36.25;;;;;8.35;54.96;101671.09;5082871;28;45315;-58
2022/03/09 03:25:51;;;;;;;;;39.75;34.50;;;;;8.37;55.30;101661.41;5082255;28;45975;-57
2022/03/09 03:28:17;;;;;;;;;42.75;34.75;;;;;8.39;56.30;101659.59;5082841;28;45328;-57
2022/03/09 03:30:42;;;;;;;;;39.00;28.25;;;;;8.41;56.69;101659.53;5082382;27;45360;-58
2022/03/09 03:33:08;;;;;;;;;33.00;29.25;;;;;8.43;56.89;101661.19;5083070;28;45379;-57
2022/03/09 03:35:33;;;;;;;;;33.00;24.00;;;;;8.46;57.48;101655.84;5082563;28;45478;-57
2022/03/09 03:37:59;;;;;;;;;41.75;30.75;;;;;8.48;57.88;101655.78;5082747;28;45249;-57
2022/03/09 03:40:24;;;;;;;;;36.25;31.50;;;;;8.48;57.49;101654.00;5087169;27;45474;-56
2022/03/09 03:42:50;;;;;;;;;38.25;30.50;;;;;8.50;58.05;101653.94;5082654;28;45236;-57
2022/03/09 03:45:15;;;;;;;;;27.50;24.00;;;;;8.50;57.81;101661.84;5082029;28;45981;-56
2022/03/09 03:47:41;;;;;;;;;42.50;34.25;;;;;8.51;58.52;101660.91;5082428;28;45161;-58
2022/03/09 03:50:07;;;;;;;;;27.25;24.50;;;;;8.50;59.10;101657.44;5082320;28;45260;-58
2022/03/09 03:52:32;;;;;;;;;27.75;23.25;;;;;8.51;59.28;101661.78;5081971;27;45541;-56
2022/03/09 03:54:58;;;;;;;;;29.00;24.25;;;;;8.52;59.57;101652.13;5081935;28;45575;-58
2022/03/09 03:57:23;;;;;;;;;25.50;23.75;;;;;8.53;59.83;101656.47;5090744;27;45165;-57
2022/03/09 03:59:49;;;;;;;;;26.25;22.00;;;;;8.53;60.02;101659.09;5093262;27;45280;-57
2022/03/09 04:02:14;;;;;;;;;38.50;29.25;;;;;8.53;59.92;101659.09;5081958;28;45389;-57
2022/03/09 04:04:40;;;;;;;;;41.00;34.00;;;;;8.51;59.08;101664.41;5081934;28;45426;-57
2022/03/09 04:07:06;;;;;;;;;47.75;36.50;;;;;8.49;58.77;101663.59;5082148;28;45310;-56
2022/03/09 04:09:31;;;;;;;;;52.75;42.00;;;;;8.47;58.45;101673.31;5085634;27;45374;-58
2022/03/09 04:11:57;;;;;;;;;54.25;37.50;;;;;8.44;58.47;101665.53;5081967;27;45348;-57
2022/03/09 04:14:22;;;;;;;;;41.25;39.00;;;;;8.43;58.45;101668.22;5082064;28;45419;-58
2022/03/09 04:16:49;;;;;;;;;49.00;40.50;;;;;8.39;58.17;101668.31;5081647;27;45438;-57
2022/03/09 04:19:14;;;;;;;;;60.00;45.67;;;;;8.34;57.77;101671.97;5081477;27;45318;-56
2022/03/09 04:21:40;;;;;;;;;61.75;43.50;;;;;8.29;58.09;101677.38;5081389;27;45287;-56
2022/03/09 04:24:05;;;;;;;;;57.25;40.75;;;;;8.27;57.82;101673.09;5081882;28;45256;-58
2022/03/09 04:26:31;;;;;;;;;55.25;42.25;;;;;8.24;57.84;101667.97;5081523;27;45631;-55
2022/03/09 04:28:58;;;;;;;;;58.75;43.75;;;;;8.22;57.38;101667.19;5082171;28;45276;-57
2022/03/09 04:31:23;;;;;;;;;56.00;43.00;;;;;8.20;56.57;101666.34;5081557;27;45436;-58
2022/03/09 04:33:49;;;;;;;;;54.50;45.75;;;;;8.20;57.24;101667.19;5081723;27;46212;-55
2022/03/09 04:36:14;;;;;;;;;62.00;49.00;;;;;8.18;56.92;101666.41;5081342;27;45306;-57
2022/03/09 04:38:40;;;;;;;;;58.75;46.50;;;;;8.15;57.02;101663.91;5082061;27;45335;-57
2022/03/09 04:41:06;;;;;;;;;66.33;45.33;;;;;8.13;56.69;101671.81;5084700;27;45429;-57
2022/03/09 04:43:31;;;;;;;;;63.33;46.67;;;;;8.12;56.50;101666.63;5081006;27;45414;-57
2022/03/09 04:45:57;;;;;;;;;72.00;52.67;;;;;8.10;56.29;101665.81;5081205;28;45442;-56
2022/03/09 04:48:22;;;;;;;;;76.00;54.67;;;;;8.07;56.36;101666.78;5081851;28;45317;-56
2022/03/09 04:50:48;;;;;;;;;73.67;52.67;;;;;8.05;56.53;101670.34;5081720;28;45561;-57
2022/03/09 04:53:13;;;;;;;;;65.67;50.33;;;;;8.04;56.04;101680.00;5080815;28;45984;-57
2022/03/09 04:55:39;;;;;;;;;70.67;51.00;;;;;8.01;56.10;101682.72;5062692;28;45262;-57
2022/03/09 04:58:06;;;;;;;;;71.67;49.33;;;;;8.00;55.81;101691.50;5095077;27;45276;-56
2022/03/09 05:00:31;;;;;;;;;68.33;51.33;;;;;7.98;56.13;101690.72;5086214;27;45433;-57
2022/03/09 05:02:57;;;;;;;;;67.67;48.00;;;;;7.97;56.42;101694.22;5080948;27;46039;-56
2022/03/09 05:05:22;;;;;;;;;65.33;49.33;;;;;7.96;56.30;101691.66;5076512;27;45426;-56
2022/03/09 05:07:48;;;;;;;;;63.00;47.67;;;;;7.94;56.53;101689.09;5081549;27;45147;-57
2022/03/09 05:10:13;;;;;;;;;70.33;50.67;;;;;7.92;56.17;101696.16;5085089;27;45302;-57
2022/03/09 05:12:39;;;;;;;;;72.00;49.00;;;;;7.92;56.56;101708.41;5080866;28;46066;-57
2022/03/09 05:15:05;;;;;;;;;79.67;55.33;;;;;7.89;56.39;101701.47;5081026;27;45476;-57
2022/03/09 05:17:31;;;;;;;;;79.00;57.67;;;;;7.87;56.31;101703.31;5081489;27;45439;-56
2022/03/09 05:19:57;;;;;;;;;75.67;53.00;;;;;7.84;56.47;101701.66;5081391;27;45253;-57
2022/03/09 05:22:22;;;;;;;;;72.33;52.33;;;;;7.82;56.43;101703.47;5081122;27;45987;-56
2022/03/09 05:24:48;;;;;;;;;69.00;53.33;;;;;7.80;56.34;101713.13;5080129;27;45353;-56
2022/03/09 05:27:13;;;;;;;;;77.67;54.00;;;;;7.79;56.90;101714.03;5081459;28;45391;-57
2022/03/09 05:29:39;;;;;;;;;73.67;54.00;;;;;7.79;56.55;101715.81;5081193;27;45462;-57
2022/03/09 05:32:05;;;;;;;;;121.00;103.00;;;;;7.77;56.77;101717.63;5081126;28;45761;-57
2022/03/09 05:34:30;;;;;;;;;92.67;64.33;;;;;7.72;58.37;101716.91;5080574;27;45277;-56
2022/03/09 05:36:56;;;;;;;;;98.00;63.67;;;;;7.71;57.82;101720.44;5081004;28;45312;-57
2022/03/09 05:39:21;;;;;;;;;72.00;52.67;;;;;7.69;58.13;101714.41;5085370;27;45289;-56
2022/03/09 05:41:50;;;;;;;;;78.33;55.00;;;;;7.69;57.62;101720.50;5080790;28;45259;-57
2022/03/09 05:44:15;;;;;;;;;71.67;51.00;;;;;7.67;57.50;101732.81;5080637;28;45390;-58
2022/03/09 05:46:41;;;;;;;;;63.33;47.67;;;;;7.65;57.62;101734.59;5080648;28;45364;-57
2022/03/09 05:49:07;;;;;;;;;79.67;55.00;;;;;7.61;57.91;101734.75;5080799;28;45390;-56
2022/03/09 05:51:32;;;;;;;;;68.67;45.33;;;;;7.60;58.20;101735.66;5080682;28;45483;-55
2022/03/09 05:53:58;;;;;;;;;60.33;45.67;;;;;7.57;58.29;101734.84;5079762;27;45315;-57
2022/03/09 05:56:24;;;;;;;;;63.67;47.67;;;;;7.60;58.25;101746.16;5080385;28;45394;-57
2022/03/09 05:58:50;;;;;;;;;58.67;44.33;;;;;7.57;58.56;101749.72;5099875;27;45142;-59
2022/03/09 06:01:15;;;;;;;;;65.75;50.00;;;;;7.56;58.85;101753.25;5080505;28;46105;-57
2022/03/09 06:03:41;;;;;;;;;60.00;44.67;;;;;7.54;58.57;101749.81;5080558;28;45304;-57
2022/03/09 06:06:07;;;;;;;;;57.00;45.00;;;;;7.53;58.73;101751.59;5095936;27;45308;-57
2022/03/09 06:08:32;;;;;;;;;61.25;45.00;;;;;7.52;58.64;101751.63;5085004;27;45319;-58
2022/03/09 06:10:58;;;;;;;;;57.50;43.75;;;;;7.51;58.97;101753.41;5083761;28;45273;-56
2022/03/09 06:13:23;;;;;;;;;60.67;46.00;;;;;7.48;58.49;101757.84;5083991;27;45145;-56
2022/03/09 06:15:49;;;;;;;;;57.33;46.00;;;;;7.46;58.67;101755.28;5104486;27;45464;-57
2022/03/09 06:18:15;;;;;;;;;62.33;47.67;;;;;7.48;58.86;101763.09;5084121;27;45322;-57
2022/03/09 06:20:41;;;;;;;;;65.33;46.00;;;;;7.47;58.75;101759.63;5083259;27;45743;-57
2022/03/09 06:23:07;;;;;;;;;63.00;45.67;;;;;7.48;58.49;101758.72;5098281;27;45326;-56
2022/03/09 06:25:34;;;;;;;;;61.33;44.33;;;;;7.48;58.79;101760.47;5095787;27;46072;-57
2022/03/09 06:28:00;;;;;;;;;57.00;44.00;;;;;7.46;59.09;101763.16;5097659;27;45445;-57
2022/03/09 06:30:26;;;;;;;;;63.00;48.00;;;;;7.47;58.88;101766.63;5088820;27;45312;-57
2022/03/09 06:32:52;;;;;;;;;60.67;45.00;;;;;7.48;59.31;101763.09;5085591;27;45169;-57
2022/03/09 06:35:18;;;;;;;;;61.00;47.00;;;;;7.48;58.89;101761.34;5064894;28;45430;-57
2022/03/09 06:37:44;;;;;;;;;60.67;44.67;;;;;7.51;59.18;101763.03;5083175;27;45157;-57
2022/03/09 06:40:10;;;;;;;;;63.00;42.00;;;;;7.53;58.67;101763.84;5092695;27;45768;-57
2022/03/09 06:42:36;;;;;;;;;64.33;49.00;;;;;7.54;58.97;101769.03;5087409;27;45399;-58
2022/03/09 06:45:03;;;;;;;;;60.33;45.67;;;;;7.56;58.89;101775.06;5083300;27;45336;-58
2022/03/09 06:47:28;;;;;;;;;59.67;43.67;;;;;7.60;59.23;101780.25;5086606;27;45495;-57
2022/03/09 06:49:54;;;;;;;;;60.33;46.33;;;;;7.62;58.60;101771.41;5083217;27;45558;-58
2022/03/09 06:52:19;;;;;;;;;60.00;43.50;;;;;7.66;59.22;101780.03;5083558;27;45297;-57
2022/03/09 06:54:48;;;;;;;;;61.33;45.00;;;;;7.70;58.96;101785.16;5082531;28;45520;-57
2022/03/09 06:57:13;;;;;;;;;56.67;45.33;;;;;7.73;59.33;101784.19;5104304;27;45514;-57
2022/03/09 06:59:39;;;;;;;;;54.67;43.00;;;;;7.78;58.94;101770.03;5084360;27;46428;-57
2022/03/09 07:02:04;;;;;;;;;57.00;44.00;;;;;7.83;59.04;101781.25;5085228;27;45407;-57
2022/03/09 07:04:30;;;;;;;;;58.00;47.00;;;;;7.87;59.27;101781.16;5096606;27;45867;-55
2022/03/09 07:06:56;;;;;;;;;64.50;46.00;;;;;7.95;59.11;101781.78;5107905;27;45507;-57
2022/03/09 07:09:22;;;;;;;;;56.25;44.25;;;;;8.00;59.44;101785.97;5094667;27;45452;-57
2022/03/09 07:11:47;;;;;;;;;63.67;46.00;;;;;8.05;59.38;101788.44;5103025;27;45389;-57
2022/03/09 07:14:13;;;;;;;;;56.75;44.50;;;;;8.12;59.07;101795.19;5103375;27;45261;-59
2022/03/09 07:16:38;;;;;;;;;58.67;44.00;;;;;8.21;59.24;101808.03;5101335;27;45504;-53
2022/03/09 07:19:04;;;;;;;;;64.25;46.50;;;;;8.28;59.39;101808.69;5103435;27;45379;-59
2022/03/09 07:21:30;;;;;;;;;61.75;45.75;;;;;8.35;59.40;101807.63;5102613;27;45406;-59
2022/03/09 07:23:56;;;;;;;;;57.00;44.50;;;;;8.44;59.33;101801.19;5093042;27;45283;-59
2022/03/09 07:26:21;;;;;;;;;65.00;46.33;;;;;8.49;59.39;101812.41;5084225;27;45182;-59
2022/03/09 07:28:47;;;;;;;;;58.75;41.25;;;;;8.52;59.62;101807.06;5084706;27;45315;-59
2022/03/09 07:31:12;;;;;;;;;54.75;44.25;;;;;8.54;59.69;101814.00;5099486;27;45231;-59
2022/03/09 07:33:38;;;;;;;;;48.75;41.50;;;;;8.60;59.89;101818.16;5091606;27;45225;-58
2022/03/09 07:36:04;;;;;;;;;66.67;46.67;;;;;8.65;59.99;101824.97;5084460;27;45355;-58
2022/03/09 07:38:30;;;;;;;;;56.00;45.25;;;;;8.74;59.69;101820.31;5086357;27;47140;-59
2022/03/09 07:40:55;;;;;;;;;54.25;41.25;;;;;8.84;59.81;101826.97;5100179;27;46557;-59
2022/03/09 07:43:22;;;;;;;;;48.25;41.00;;;;;8.94;59.81;101831.88;5093333;27;45437;-59
2022/03/09 07:45:47;;;;;;;;;54.00;44.00;;;;;9.02;59.21;101831.59;5099586;27;45476;-59
2022/03/09 07:48:14;;;;;;;;;58.00;45.00;;;;;9.11;59.85;101830.41;5102162;27;45374;-59
2022/03/09 07:50:40;;;;;;;;;62.00;47.25;;;;;9.17;60.22;101830.19;5102393;27;45286;-60
2022/03/09 07:53:07;;;;;;;;;58.00;42.00;;;;;9.25;60.11;101830.78;5102354;27;45438;-59
2022/03/09 07:55:33;;;;;;;;;56.25;44.50;;;;;9.34;59.96;101834.84;5100114;27;45650;-59
2022/03/09 07:57:58;;;;;;;;;55.75;42.50;;;;;9.40;60.16;101837.22;5095789;27;45367;-59
2022/03/09 08:00:24;;;;;;;;;51.75;35.75;;;;;9.45;60.72;101838.78;5094506;27;45611;-59
2022/03/09 08:02:49;;;;;;;;;45.75;37.25;;;;;9.47;61.17;101844.84;5094402;27;45474;-59
2022/03/09 08:05:16;;;;;;;;;61.50;44.00;;;;;9.52;61.63;101848.16;5100873;27;45494;-60
2022/03/09 08:07:42;;;;;;;;;68.25;46.75;;;;;9.63;61.76;101839.00;5082639;27;46798;-60
2022/03/09 08:10:09;;;;;;;;;51.50;40.25;;;;;9.73;61.25;101843.03;5094195;27;45367;-59
2022/03/09 08:12:35;;;;;;;;;47.25;39.00;;;;;9.78;61.22;101841.91;5100067;27;45150;-60
2022/03/09 08:15:02;;;;;;;;;45.50;37.50;;;;;9.84;61.45;101848.72;5099988;27;45240;-59
2022/03/09 08:17:28;;;;;;;;;48.50;37.50;;;;;9.94;61.88;101850.06;5096201;27;45360;-60
2022/03/09 08:19:53;;;;;;;;;47.50;39.00;;;;;10.05;61.32;101841.78;5100302;27;45314;-60
2022/03/09 08:22:20;;;;;;;;;46.25;34.25;;;;;10.12;61.86;101845.88;5098445;27;46931;-59
2022/03/09 08:24:45;;;;;;;;;38.00;34.00;;;;;10.21;61.76;101836.75;5084002;27;45375;-59
2022/03/09 08:27:11;;;;;;;;;44.75;35.50;;;;;10.30;61.69;101844.31;5082991;27;45512;-60
2022/03/09 08:29:37;;;;;;;;;39.25;34.25;;;;;10.40;61.70;101842.16;5087421;27;45311;-60
2022/03/09 08:32:02;;;;;;;;;36.25;30.25;;;;;10.50;61.25;101846.13;5093467;27;45485;-59
2022/03/09 08:34:28;;;;;;;;;44.50;36.25;;;;;10.62;61.13;101851.75;5096243;27;45330;-60
2022/03/09 08:36:53;;;;;;;;;33.00;28.00;;;;;10.67;61.56;101851.56;5088599;27;46013;-60
2022/03/09 08:39:19;;;;;;;;;36.75;33.00;;;;;10.69;61.16;101854.13;5092243;27;45345;-60
2022/03/09 08:41:44;;;;;;;;;33.00;31.25;;;;;10.70;61.60;101856.72;5082885;27;45412;-60
2022/03/09 08:44:10;;;;;;;;;30.50;23.50;;;;;10.71;61.52;101857.56;5083612;27;45240;-60
2022/03/09 08:46:36;;;;;;;;;20.75;19.00;;;;;10.62;61.70;101864.06;5086725;27;45422;-60
2022/03/09 08:49:01;;;;;;;;;22.75;21.00;;;;;10.67;61.70;101858.63;5095889;27;45867;-60
2022/03/09 08:51:27;;;;;;;;;26.25;21.00;;;;;10.70;62.03;101861.13;5093944;27;45647;-60
2022/03/09 08:53:52;;;;;;;;;31.00;24.75;;;;;10.74;62.49;101860.91;5099006;27;45424;-60
2022/03/09 08:56:18;;;;;;;;;25.25;23.50;;;;;10.79;61.82;101858.09;5093247;27;45283;-60
2022/03/09 08:58:43;;;;;;;;;26.75;23.50;;;;;10.80;61.96;101862.44;5085717;27;45451;-60
2022/03/09 09:01:10;;;;;;;;;35.50;26.50;;;;;10.78;61.74;101866.94;5094281;27;45520;-60
2022/03/09 09:03:35;;;;;;;;;27.50;25.75;;;;;10.61;62.18;101859.72;5097795;27;45335;-59
2022/03/09 09:06:01;;;;;;;;;28.75;20.25;;;;;10.49;62.67;101865.47;5085572;27;46197;-59
2022/03/09 09:08:27;;;;;;;;;24.00;20.75;;;;;10.39;62.48;101857.09;5087982;27;45332;-60
2022/03/09 09:10:52;;;;;;;;;29.75;26.25;;;;;10.31;63.12;101853.94;5080818;27;46471;-60
2022/03/09 09:13:18;;;;;;;;;31.25;23.75;;;;;10.20;62.91;101859.59;5081295;28;45503;-59
2022/03/09 09:15:44;;;;;;;;;30.25;24.50;;;;;10.17;63.23;101856.22;5080542;28;45402;-59
2022/03/09 09:18:10;;;;;;;;;29.50;25.25;;;;;10.16;63.38;101859.78;5081085;28;45269;-59
2022/03/09 09:20:36;;;;;;;;;28.25;23.50;;;;;10.15;63.50;101864.19;5080587;28;45473;-60
2022/03/09 09:23:03;;;;;;;;;33.50;27.25;;;;;10.28;63.74;101860.19;5090191;27;45510;-60
2022/03/09 09:25:29;;;;;;;;;28.00;25.25;;;;;10.49;63.53;101853.16;5089130;27;45196;-60
2022/03/09 09:27:56;;;;;;;;;32.50;26.00;;;;;10.75;63.05;101857.38;5081171;27;45397;-60
2022/03/09 09:30:23;;;;;;;;;30.50;29.00;;;;;10.96;62.94;101855.59;5100596;27;45490;-61
2022/03/09 09:32:49;;;;;;;;;36.50;29.25;;;;;11.12;62.69;101859.28;5092504;27;45454;-59
2022/03/09 09:35:17;;;;;;;;;37.75;32.75;;;;;11.23;62.16;101850.06;5091907;27;45384;-59
2022/03/09 09:37:43;;;;;;;;;30.25;25.00;;;;;11.30;62.20;101843.59;5080456;28;45240;-61
2022/03/09 09:40:11;;;;;;;;;30.50;26.75;;;;;11.34;61.57;101846.00;5085393;27;45748;-58
2022/03/09 09:42:37;;;;;;;;;40.50;29.50;;;;;11.36;61.93;101848.56;5080138;27;45586;-58
2022/03/09 09:45:04;;;;;;;;;40.75;31.00;;;;;11.41;62.00;101846.59;5080587;28;45309;-58
2022/03/09 09:47:31;;;;;;;;;35.25;29.00;;;;;11.52;61.58;101843.44;5080429;27;45404;-56
2022/03/09 09:49:57;;;;;;;;;33.50;29.50;;;;;11.56;61.43;101840.63;5084387;27;45364;-55
2022/03/09 09:52:32;;;;;;;;;36.00;29.50;;;;;11.57;61.09;101838.84;5108296;27;45721;-55
2022/03/09 09:54:59;;;;;;;;;26.50;25.75;;;;;11.59;61.52;101840.47;5098596;27;45374;-57
2022/03/09 09:57:27;;;;;;;;;27.50;23.75;;;;;11.66;61.50;101835.78;5097574;27;45724;-59
2022/03/09 09:59:54;;;;;;;;;19.75;17.50;;;;;11.74;61.11;101833.63;5094180;27;45253;-59
2022/03/09 10:02:19;;;;;;;;;20.00;20.00;;;;;11.68;61.22;101829.47;5099761;27;45443;-60
2022/03/09 10:04:46;;;;;;;;;24.75;18.25;;;;;11.61;61.35;101836.00;5099631;27;45450;-62
2022/03/09 10:07:12;;;;;;;;;20.00;17.00;;;;;11.63;61.62;101846.47;5099802;27;45334;-60
2022/03/09 10:09:39;;;;;;;;;19.75;17.00;;;;;11.66;61.60;101839.25;5086755;27;45454;-60
2022/03/09 10:12:07;;;;;;;;;18.25;15.75;;;;;11.71;61.51;101836.41;5080624;28;45347;-60
2022/03/09 10:14:52;;;;;;;;;21.50;19.50;;;;;11.79;61.85;101831.63;5080170;27;45510;-60
2022/03/09 10:17:32;;;;;;;;;18.25;14.00;;;;;11.91;61.64;101836.34;5080571;28;45437;-62
2022/03/09 10:20:09;;;;;;;;;18.25;16.00;;;;;11.94;61.40;101838.03;5081253;27;45409;-62
2022/03/09 10:22:41;;;;;;;;;26.25;19.75;;;;;11.99;61.06;101831.56;5085711;27;45408;-61
2022/03/09 10:25:09;;;;;;;;;22.00;16.75;;;;;12.05;61.17;101835.72;5092116;27;45495;-61
2022/03/09 10:27:50;;;;;;;;;20.00;18.00;;;;;12.08;61.30;101827.63;5080242;28;45308;-61
2022/03/09 10:30:24;;;;;;;;;27.50;18.75;;;;;12.11;60.95;101824.00;5093648;27;45402;-60
2022/03/09 10:32:56;;;;;;;;;21.50;17.00;;;;;12.14;60.87;101816.78;5100107;27;45621;-61
2022/03/09 10:35:31;;;;;;;;;19.00;15.75;;;;;12.22;60.98;101825.19;5100156;27;46476;-62
2022/03/09 10:37:58;;;;;;;;;20.00;16.75;;;;;12.30;60.70;101823.03;5100508;27;45355;-64
2022/03/09 10:40:25;;;;;;;;;18.00;17.00;;;;;12.39;60.58;101812.94;5086964;27;45273;-62
2022/03/09 10:42:52;;;;;;;;;21.00;17.00;;;;;12.45;60.53;101824.06;5079688;28;45585;-59
2022/03/09 10:45:18;;;;;;;;;26.50;17.00;;;;;12.48;60.43;101818.63;5078871;28;45324;-60
2022/03/09 10:47:46;;;;;;;;;17.50;15.50;;;;;12.53;60.12;101819.25;5079407;27;45275;-65
2022/03/09 10:50:20;;;;;;;;;27.00;19.25;;;;;12.64;59.89;101817.84;5080351;27;45524;-61
2022/03/09 10:53:01;;;;;;;;;24.75;18.00;;;;;12.64;59.76;101813.44;5083122;27;45320;-61
2022/03/09 10:55:35;;;;;;;;;17.00;16.50;;;;;12.70;59.74;101817.53;5082638;27;46234;-60
2022/03/09 10:58:15;;;;;;;;;23.50;17.50;;;;;12.74;59.67;101813.81;5084885;27;45588;-60
2022/03/09 11:00:43;;;;;;;;;25.75;19.50;;;;;12.82;59.39;101811.63;5091990;27;45243;-60
2022/03/09 11:03:13;;;;;;;;;22.00;17.50;;;;;12.86;59.19;101821.09;5089381;27;45592;-61
2022/03/09 11:05:53;;;;;;;;;33.25;26.50;;;;;12.90;64.53;101813.88;5089344;27;46161;-62
2022/03/09 11:08:20;;;;;;;;;24.00;21.00;;;;;13.04;62.02;101809.59;5111683;27;45408;-66
2022/03/09 11:10:47;;;;;;;;;28.00;20.25;;;;;13.11;63.15;101813.63;5087246;27;45234;-59